createdAt,value
2023-04-09T00:03:10.903Z,97
2023-04-09T00:03:26.536Z,97
2023-04-09T00:03:55.759Z,97
2023-04-09T00:04:26.272Z,97
2023-04-09T00:04:56.369Z,97
2023-04-09T00:05:27.083Z,97
2023-04-09T00:05:59.281Z,97
2023-04-09T00:06:30.369Z,97
2023-04-09T00:07:02.430Z,97
2023-04-09T00:07:38.613Z,97
2023-04-09T00:08:02.137Z,97
2023-04-09T00:08:56.916Z,97
2023-04-09T00:09:05.680Z,97
2023-04-09T00:09:36.068Z,97
2023-04-09T00:10:07.448Z,97
2023-04-09T00:15:43.573Z,97
2023-04-09T00:15:51.734Z,97
2023-04-09T00:17:10.535Z,97
2023-04-09T00:17:21.977Z,97
2023-04-09T00:18:07.693Z,97
2023-04-09T00:18:24.477Z,97
2023-04-09T00:18:54.681Z,97
2023-04-09T00:19:25.744Z,97
2023-04-09T00:19:56.212Z,97
2023-04-09T00:20:28.462Z,97
2023-04-09T00:22:06.485Z,97
2023-04-09T00:22:41.765Z,97
2023-04-09T00:23:02.939Z,96
2023-04-09T00:23:33.040Z,97
2023-04-09T00:24:04.204Z,97
2023-04-09T00:24:35.964Z,97
2023-04-09T00:25:06.037Z,97
2023-04-09T00:25:37.450Z,97
2023-04-09T00:26:10.462Z,97
2023-04-09T00:26:38.964Z,97
2023-04-09T00:27:10.218Z,97
2023-04-09T00:27:42.468Z,97
2023-04-09T00:28:12.668Z,97
2023-04-09T00:28:44.079Z,97
2023-04-09T00:29:13.646Z,97
2023-04-09T00:29:44.972Z,97
2023-04-09T00:30:16.766Z,97
2023-04-09T00:30:46.966Z,97
2023-04-09T00:31:20.064Z,97
2023-04-09T00:31:51.058Z,97
2023-04-09T00:32:20.149Z,97
2023-04-09T00:32:52.798Z,97
2023-04-09T00:33:23.812Z,97
2023-04-09T00:33:53.529Z,97
2023-04-09T00:34:26.740Z,97
2023-04-09T00:34:54.577Z,97
2023-04-09T00:35:25.765Z,97
2023-04-09T00:35:57.752Z,97
2023-04-09T00:36:27.809Z,97
2023-04-09T00:36:59.619Z,97
2023-04-09T00:37:30.479Z,97
2023-04-09T00:38:18.261Z,97
2023-04-09T00:38:38.974Z,97
2023-04-09T00:39:03.776Z,97
2023-04-09T00:39:34.503Z,97
2023-04-09T00:40:05.503Z,97
2023-04-09T00:40:35.959Z,97
2023-04-09T00:41:07.133Z,97
2023-04-09T00:41:37.887Z,97
2023-04-09T00:42:08.562Z,97
2023-04-09T00:42:39.914Z,97
2023-04-09T00:43:16.522Z,97
2023-04-09T00:43:46.505Z,97
2023-04-09T00:44:24.650Z,97
2023-04-09T00:45:05.915Z,97
2023-04-09T00:45:41.810Z,97
2023-04-09T00:46:19.731Z,97
2023-04-09T00:46:56.550Z,97
2023-04-09T00:47:28.453Z,97
2023-04-09T00:47:51.704Z,97
2023-04-09T00:48:22.801Z,97
2023-04-09T00:49:23.854Z,97
2023-04-09T00:50:23.375Z,97
2023-04-09T00:51:10.046Z,98
2023-04-09T00:51:28.364Z,98
2023-04-09T00:52:01.652Z,98
2023-04-09T00:52:31.595Z,98
2023-04-09T00:53:01.988Z,98
2023-04-09T00:53:32.795Z,98
2023-04-09T00:54:02.349Z,98
2023-04-09T00:54:37.080Z,98
2023-04-09T00:55:03.937Z,98
2023-04-09T00:55:34.623Z,98
2023-04-09T00:56:09.782Z,98
2023-04-09T00:56:36.655Z,98
2023-04-09T00:57:10.313Z,98
2023-04-09T00:57:42.972Z,98
2023-04-09T00:58:11.675Z,98
2023-04-09T00:58:43.140Z,98
2023-04-09T00:59:13.048Z,98
2023-04-09T00:59:44.031Z,98
2023-04-09T01:00:15.303Z,98
2023-04-09T01:00:45.861Z,98
2023-04-09T01:01:16.125Z,98
2023-04-09T01:01:46.978Z,98
2023-04-09T01:03:00.174Z,98
2023-04-09T01:03:44.633Z,98
2023-04-09T01:04:29.595Z,98
2023-04-09T01:05:14.814Z,98
2023-04-09T01:05:46.536Z,98
2023-04-09T01:06:24.372Z,98
2023-04-09T01:06:48.226Z,98
2023-04-09T01:07:22.364Z,98
2023-04-09T01:07:51.311Z,98
2023-04-09T01:08:23.419Z,98
2023-04-09T01:08:53.456Z,98
2023-04-09T01:09:28.647Z,98
2023-04-09T01:10:04.058Z,98
2023-04-09T01:10:24.450Z,98
2023-04-09T01:10:56.076Z,98
2023-04-09T01:11:27.051Z,98
2023-04-09T01:11:57.294Z,98
2023-04-09T01:12:27.504Z,99
2023-04-09T01:13:16.235Z,99
2023-04-09T01:13:32.266Z,99
2023-04-09T01:14:02.465Z,99
2023-04-09T01:14:33.702Z,99
2023-04-09T01:15:04.398Z,99
2023-04-09T01:15:34.947Z,99
2023-04-09T01:16:05.307Z,99
2023-04-09T01:16:36.033Z,99
2023-04-09T01:17:07.279Z,99
2023-04-09T01:17:40.848Z,99
2023-04-09T01:18:09.720Z,99
2023-04-09T01:18:41.764Z,99
2023-04-09T01:19:13.482Z,99
2023-04-09T01:19:43.181Z,99
2023-04-09T01:20:13.869Z,99
2023-04-09T01:20:44.536Z,99
2023-04-09T01:21:22.116Z,99
2023-04-09T01:21:48.242Z,99
2023-04-09T01:22:16.661Z,99
2023-04-09T01:22:47.938Z,99
2023-04-09T01:23:18.764Z,99
2023-04-09T01:23:51.117Z,99
2023-04-09T01:24:23.537Z,99
2023-04-09T01:24:54.100Z,99
2023-04-09T01:25:24.219Z,99
2023-04-09T01:26:01.925Z,99
2023-04-09T01:26:25.040Z,99
2023-04-09T01:26:55.697Z,99
2023-04-09T01:27:26.636Z,99
2023-04-09T01:27:57.493Z,99
2023-04-09T01:28:28.644Z,99
2023-04-09T01:29:01.837Z,99
2023-04-09T01:29:32.090Z,99
2023-04-09T01:30:03.923Z,99
2023-04-09T01:30:34.359Z,99
2023-04-09T01:31:23.281Z,99
2023-04-09T01:31:35.164Z,99
2023-04-09T01:32:05.849Z,99
2023-04-09T01:32:37.520Z,99
2023-04-09T01:33:07.883Z,99
2023-04-09T01:33:38.887Z,99
2023-04-09T01:34:11.272Z,99
2023-04-09T01:34:43.061Z,99
2023-04-09T01:35:13.787Z,99
2023-04-09T01:35:43.927Z,99
2023-04-09T01:36:14.692Z,99
2023-04-09T01:36:44.960Z,99
2023-04-09T01:37:15.980Z,99
2023-04-09T01:37:47.227Z,99
2023-04-09T01:38:17.576Z,99
2023-04-09T01:38:48.647Z,99
2023-04-09T01:39:21.187Z,99
2023-04-09T01:40:08.476Z,99
2023-04-09T01:40:23.504Z,99
2023-04-09T01:40:54.793Z,99
2023-04-09T01:41:24.527Z,99
2023-04-09T01:41:54.796Z,99
2023-04-09T01:42:25.271Z,99
2023-04-09T01:42:56.686Z,99
2023-04-09T01:43:28.162Z,99
2023-04-09T01:43:59.181Z,99
2023-04-09T01:44:32.072Z,99
2023-04-09T01:45:03.617Z,99
2023-04-09T01:45:33.634Z,99
2023-04-09T01:46:03.442Z,99
2023-04-09T01:46:34.491Z,99
2023-04-09T01:47:05.070Z,99
2023-04-09T01:47:35.633Z,99
2023-04-09T01:48:06.894Z,99
2023-04-09T01:48:55.036Z,99
2023-04-09T01:49:08.751Z,99
2023-04-09T01:49:40.636Z,99
2023-04-09T01:50:13.855Z,99
2023-04-09T01:50:44.039Z,99
2023-04-09T01:51:14.298Z,99
2023-04-09T01:51:44.564Z,99
2023-04-09T01:52:15.642Z,99
2023-04-09T01:52:45.953Z,99
2023-04-09T01:53:47.803Z,99
2023-04-09T01:54:19.203Z,99
2023-04-09T01:54:49.526Z,99
2023-04-09T01:55:24.090Z,99
2023-04-09T01:55:58.473Z,99
2023-04-09T01:56:24.183Z,99
2023-04-09T01:56:54.406Z,99
2023-04-09T01:57:25.781Z,99
2023-04-09T01:57:56.610Z,99
2023-04-09T01:58:27.000Z,99
2023-04-09T01:58:57.974Z,99
2023-04-09T01:59:29.026Z,99
2023-04-09T02:00:02.226Z,99
2023-04-09T02:01:01.680Z,99
2023-04-09T02:01:18.620Z,99
2023-04-09T02:01:39.501Z,99
2023-04-09T02:02:05.441Z,99
2023-04-09T02:02:34.716Z,99
2023-04-09T02:03:24.482Z,99
2023-04-09T02:03:39.849Z,99
2023-04-09T02:04:08.352Z,99
2023-04-09T02:04:38.646Z,99
2023-04-09T02:05:11.646Z,99
2023-04-09T02:05:46.363Z,99
2023-04-09T02:06:13.319Z,99
2023-04-09T02:06:43.504Z,99
2023-04-09T02:07:14.860Z,99
2023-04-09T02:07:45.542Z,99
2023-04-09T02:08:15.824Z,99
2023-04-09T02:09:11.029Z,99
2023-04-09T02:09:17.597Z,99
2023-04-09T02:09:49.160Z,99
2023-04-09T02:10:21.472Z,99
2023-04-09T02:10:53.337Z,99
2023-04-09T02:11:25.089Z,99
2023-04-09T02:11:53.471Z,99
2023-04-09T02:12:27.274Z,99
2023-04-09T02:12:56.954Z,99
2023-04-09T02:13:27.072Z,99
2023-04-09T02:13:57.143Z,99
2023-04-09T02:14:29.362Z,99
2023-04-09T02:14:58.439Z,99
2023-04-09T02:15:33.214Z,99
2023-04-09T02:16:03.034Z,99
2023-04-09T02:16:33.849Z,99
2023-04-09T02:17:03.963Z,99
2023-04-09T02:17:34.990Z,99
2023-04-09T02:18:05.635Z,99
2023-04-09T02:18:36.340Z,99
2023-04-09T02:19:07.504Z,99
2023-04-09T02:19:37.954Z,99
2023-04-09T02:20:09.755Z,99
2023-04-09T02:20:40.294Z,99
2023-04-09T02:21:12.803Z,99
2023-04-09T02:22:14.504Z,99
2023-04-09T02:22:45.766Z,99
2023-04-09T02:23:15.687Z,99
2023-04-09T02:23:45.691Z,99
2023-04-09T02:24:17.699Z,99
2023-04-09T02:24:47.792Z,99
2023-04-09T02:25:19.348Z,99
2023-04-09T02:26:23.847Z,99
2023-04-09T02:26:54.183Z,99
2023-04-09T02:27:24.753Z,99
2023-04-09T02:27:55.424Z,99
2023-04-09T02:28:25.942Z,99
2023-04-09T02:28:55.856Z,99
2023-04-09T02:29:28.396Z,99
2023-04-09T02:29:58.021Z,99
2023-04-09T02:30:30.052Z,99
2023-04-09T02:31:00.041Z,99
2023-04-09T02:31:36.059Z,99
2023-04-09T02:32:05.326Z,99
2023-04-09T02:32:35.439Z,99
2023-04-09T02:33:04.873Z,99
2023-04-09T02:33:36.148Z,99
2023-04-09T02:34:08.049Z,99
2023-04-09T02:34:37.990Z,99
2023-04-09T02:35:26.654Z,99
2023-04-09T02:35:39.203Z,99
2023-04-09T02:36:15.587Z,99
2023-04-09T02:36:43.294Z,99
2023-04-09T02:37:14.260Z,99
2023-04-09T02:37:44.506Z,99
2023-04-09T02:38:14.730Z,99
2023-04-09T02:38:45.565Z,99
2023-04-09T02:39:16.653Z,99
2023-04-09T02:39:47.110Z,99
2023-04-09T02:40:18.169Z,99
2023-04-09T02:40:49.195Z,99
2023-04-09T02:41:20.504Z,99
2023-04-09T02:41:52.946Z,99
2023-04-09T02:42:23.926Z,99
2023-04-09T02:42:54.731Z,99
2023-04-09T02:43:24.878Z,99
2023-04-09T02:43:55.735Z,99
2023-04-09T02:44:26.582Z,99
2023-04-09T02:44:56.810Z,99
2023-04-09T02:45:28.712Z,99
2023-04-09T02:46:29.914Z,99
2023-04-09T02:47:08.467Z,99
2023-04-09T02:47:34.359Z,99
2023-04-09T02:48:34.543Z,99
2023-04-09T02:49:10.252Z,99
2023-04-09T02:49:37.038Z,99
2023-04-09T02:50:07.928Z,99
2023-04-09T02:50:38.612Z,99
2023-04-09T02:51:09.299Z,99
2023-04-09T02:51:41.558Z,99
2023-04-09T02:52:13.614Z,99
2023-04-09T02:52:44.771Z,99
2023-04-09T02:53:15.226Z,99
2023-04-09T02:53:45.500Z,99
2023-04-09T02:54:16.407Z,99
2023-04-09T02:54:46.721Z,99
2023-04-09T02:55:18.082Z,99
2023-04-09T02:56:19.088Z,99
2023-04-09T02:56:50.103Z,99
2023-04-09T02:57:22.327Z,99
2023-04-09T02:57:54.424Z,99
2023-04-09T02:58:25.016Z,99
2023-04-09T02:58:54.956Z,99
2023-04-09T02:59:26.400Z,99
2023-04-09T02:59:56.932Z,99
2023-04-09T03:00:46.064Z,99
2023-04-09T03:00:57.967Z,99
2023-04-09T03:01:28.822Z,99
2023-04-09T03:02:00.060Z,99
2023-04-09T03:02:31.204Z,99
2023-04-09T03:03:02.846Z,99
2023-04-09T03:03:35.284Z,99
2023-04-09T03:04:37.146Z,99
2023-04-09T03:05:07.300Z,99
2023-04-09T03:05:37.439Z,99
2023-04-09T03:06:08.780Z,99
2023-04-09T03:06:39.033Z,99
2023-04-09T03:07:10.338Z,99
2023-04-09T03:07:41.123Z,99
2023-04-09T03:08:12.461Z,99
2023-04-09T03:08:45.230Z,99
2023-04-09T03:09:17.073Z,99
2023-04-09T03:09:46.535Z,99
2023-04-09T03:10:17.019Z,99
2023-04-09T03:10:48.212Z,99
2023-04-09T03:11:18.468Z,99
2023-04-09T03:11:49.161Z,99
2023-04-09T03:12:20.709Z,99
2023-04-09T03:12:51.435Z,99
2023-04-09T03:13:21.785Z,99
2023-04-09T03:14:08.526Z,99
2023-04-09T03:14:27.324Z,99
2023-04-09T03:14:57.441Z,99
2023-04-09T03:15:37.548Z,99
2023-04-09T03:15:57.652Z,99
2023-04-09T03:16:28.101Z,99
2023-04-09T03:16:59.730Z,99
2023-04-09T03:17:30.613Z,99
2023-04-09T03:18:02.084Z,99
2023-04-09T03:18:32.521Z,99
2023-04-09T03:19:04.420Z,99
2023-04-09T03:19:37.402Z,99
2023-04-09T03:20:08.149Z,99
2023-04-09T03:20:37.569Z,99
2023-04-09T03:21:08.816Z,99
2023-04-09T03:21:38.720Z,99
2023-04-09T03:22:10.042Z,99
2023-04-09T03:22:40.246Z,99
2023-04-09T03:23:11.703Z,99
2023-04-09T03:24:14.098Z,99
2023-04-09T03:24:47.479Z,99
2023-04-09T03:25:18.249Z,99
2023-04-09T03:25:48.032Z,99
2023-04-09T03:26:18.162Z,99
2023-04-09T03:26:49.228Z,99
2023-04-09T03:27:19.671Z,99
2023-04-09T03:27:51.275Z,99
2023-04-09T03:28:22.407Z,99
2023-04-09T03:28:52.465Z,99
2023-04-09T03:29:41.076Z,99
2023-04-09T03:29:57.281Z,99
2023-04-09T03:30:28.144Z,99
2023-04-09T03:30:58.416Z,99
2023-04-09T03:31:28.661Z,99
2023-04-09T03:31:59.107Z,99
2023-04-09T03:32:30.022Z,99
2023-04-09T03:33:00.727Z,99
2023-04-09T03:33:31.882Z,99
2023-04-09T03:34:02.228Z,99
2023-04-09T03:34:33.872Z,99
2023-04-09T03:35:06.170Z,99
2023-04-09T03:35:37.990Z,99
2023-04-09T03:36:07.891Z,99
2023-04-09T03:36:37.927Z,99
2023-04-09T03:37:09.047Z,99
2023-04-09T03:37:39.893Z,99
2023-04-09T03:38:10.698Z,99
2023-04-09T03:38:40.929Z,99
2023-04-09T03:39:12.464Z,99
2023-04-09T03:39:43.430Z,99
2023-04-09T03:40:17.834Z,99
2023-04-09T03:40:47.287Z,99
2023-04-09T03:41:17.074Z,99
2023-04-09T03:41:48.844Z,99
2023-04-09T03:42:18.357Z,99
2023-04-09T03:42:50.024Z,99
2023-04-09T03:43:20.380Z,99
2023-04-09T03:43:51.353Z,99
2023-04-09T03:44:22.160Z,99
2023-04-09T03:44:54.289Z,99
2023-04-09T03:45:28.071Z,99
2023-04-09T03:45:57.268Z,99
2023-04-09T03:46:27.526Z,99
2023-04-09T03:46:58.919Z,99
2023-04-09T03:47:47.780Z,99
2023-04-09T03:47:59.496Z,99
2023-04-09T03:48:30.406Z,99
2023-04-09T03:49:01.361Z,99
2023-04-09T03:49:32.480Z,99
2023-04-09T03:50:03.381Z,99
2023-04-09T03:50:36.576Z,99
2023-04-09T03:51:07.514Z,99
2023-04-09T03:51:38.568Z,99
2023-04-09T03:52:08.787Z,99
2023-04-09T03:52:39.984Z,99
2023-04-09T03:53:09.905Z,99
2023-04-09T03:53:41.118Z,99
2023-04-09T03:54:42.396Z,99
2023-04-09T03:55:13.228Z,99
2023-04-09T03:55:46.422Z,99
2023-04-09T03:56:18.335Z,99
2023-04-09T03:56:47.611Z,99
2023-04-09T03:57:19.007Z,99
2023-04-09T03:57:49.585Z,99
2023-04-09T03:58:19.613Z,99
2023-04-09T03:58:50.938Z,99
2023-04-09T03:59:21.383Z,99
2023-04-09T03:59:52.933Z,99
2023-04-09T04:00:24.432Z,99
2023-04-09T04:00:54.426Z,99
2023-04-09T04:01:25.304Z,99
2023-04-09T04:01:56.246Z,99
2023-04-09T04:02:28.865Z,99
2023-04-09T04:02:59.461Z,99
2023-04-09T04:03:29.445Z,99
2023-04-09T04:04:02.527Z,99
2023-04-09T04:04:32.022Z,99
2023-04-09T04:05:02.980Z,99
2023-04-09T04:05:33.605Z,99
2023-04-09T04:06:05.213Z,99
2023-04-09T04:06:35.851Z,99
2023-04-09T04:07:08.656Z,99
2023-04-09T04:07:38.750Z,99
2023-04-09T04:08:40.288Z,99
2023-04-09T04:09:12.523Z,99
2023-04-09T04:09:42.603Z,99
2023-04-09T04:10:30.704Z,99
2023-04-09T04:10:43.824Z,99
2023-04-09T04:11:14.479Z,99
2023-04-09T04:11:46.247Z,99
2023-04-09T04:12:16.813Z,99
2023-04-09T04:12:48.388Z,99
2023-04-09T04:13:19.011Z,99
2023-04-09T04:13:52.390Z,99
2023-04-09T04:14:21.567Z,99
2023-04-09T04:14:55.028Z,99
2023-04-09T04:15:24.484Z,99
2023-04-09T04:15:54.174Z,99
2023-04-09T04:16:24.979Z,99
2023-04-09T04:16:55.830Z,99
2023-04-09T04:17:26.878Z,99
2023-04-09T04:17:58.932Z,99
2023-04-09T04:18:29.918Z,99
2023-04-09T04:19:01.182Z,99
2023-04-09T04:19:31.486Z,99
2023-04-09T04:20:02.406Z,99
2023-04-09T04:20:33.533Z,99
2023-04-09T04:21:03.838Z,99
2023-04-09T04:21:34.735Z,99
2023-04-09T04:22:06.135Z,99
2023-04-09T04:22:36.695Z,99
2023-04-09T04:23:08.871Z,99
2023-04-09T04:23:40.046Z,99
2023-04-09T04:24:26.873Z,99
2023-04-09T04:24:48.165Z,99
2023-04-09T04:25:13.048Z,99
2023-04-09T04:25:43.320Z,99
2023-04-09T04:26:13.697Z,99
2023-04-09T04:26:44.425Z,99
2023-04-09T04:27:15.266Z,99
2023-04-09T04:27:47.438Z,99
2023-04-09T04:28:19.828Z,99
2023-04-09T04:28:51.807Z,99
2023-04-09T04:29:21.484Z,99
2023-04-09T04:29:51.847Z,99
2023-04-09T04:30:23.696Z,99
2023-04-09T04:30:52.558Z,99
2023-04-09T04:31:54.181Z,99
2023-04-09T04:32:35.595Z,99
2023-04-09T04:33:42.054Z,99
2023-04-09T04:33:45.112Z,99
2023-04-09T04:34:00.192Z,99
2023-04-09T04:34:30.759Z,99
2023-04-09T04:35:01.089Z,99
2023-04-09T04:35:33.086Z,99
2023-04-09T04:36:03.076Z,99
2023-04-09T04:36:33.235Z,99
2023-04-09T04:37:05.330Z,99
2023-04-09T04:37:35.419Z,99
2023-04-09T04:38:09.070Z,99
2023-04-09T04:38:40.022Z,99
2023-04-09T04:39:10.494Z,99
2023-04-09T04:39:40.939Z,99
2023-04-09T04:40:12.938Z,99
2023-04-09T04:40:41.709Z,99
2023-04-09T04:41:12.097Z,99
2023-04-09T04:41:43.324Z,99
2023-04-09T04:42:19.765Z,99
2023-04-09T04:42:45.276Z,99
2023-04-09T04:43:19.863Z,99
2023-04-09T04:43:49.759Z,99
2023-04-09T04:44:20.635Z,99
2023-04-09T04:44:50.344Z,99
2023-04-09T04:45:21.639Z,99
2023-04-09T04:45:53.531Z,99
2023-04-09T04:46:22.253Z,99
2023-04-09T04:46:53.807Z,99
2023-04-09T04:47:25.922Z,99
2023-04-09T04:47:55.639Z,99
2023-04-09T04:48:27.011Z,99
2023-04-09T04:49:00.727Z,99
2023-04-09T04:49:29.394Z,99
2023-04-09T04:50:00.338Z,99
2023-04-09T04:50:32.920Z,99
2023-04-09T04:51:04.067Z,99
2023-04-09T04:51:32.944Z,99
2023-04-09T04:52:35.022Z,99
2023-04-09T04:53:06.156Z,99
2023-04-09T04:53:38.009Z,99
2023-04-09T04:54:10.347Z,99
2023-04-09T04:54:40.679Z,99
2023-04-09T04:55:11.470Z,99
2023-04-09T04:55:42.225Z,99
2023-04-09T04:56:12.494Z,99
2023-04-09T04:56:43.297Z,99
2023-04-09T04:57:13.902Z,99
2023-04-09T04:57:44.932Z,99
2023-04-09T04:58:19.799Z,99
2023-04-09T04:59:20.804Z,99
2023-04-09T04:59:51.276Z,99
2023-04-09T05:00:20.569Z,99
2023-04-09T05:01:14.991Z,99
2023-04-09T05:01:31.120Z,99
2023-04-09T05:01:52.434Z,99
2023-04-09T05:02:24.822Z,99
2023-04-09T05:03:00.974Z,99
2023-04-09T05:03:27.458Z,99
2023-04-09T05:03:56.739Z,99
2023-04-09T05:04:29.407Z,99
2023-04-09T05:05:00.648Z,99
2023-04-09T05:06:00.774Z,99
2023-04-09T05:06:32.049Z,99
2023-04-09T05:07:02.540Z,99
2023-04-09T05:08:04.607Z,99
2023-04-09T05:08:35.240Z,99
2023-04-09T05:09:06.632Z,99
2023-04-09T05:09:39.865Z,99
2023-04-09T05:10:10.992Z,99
2023-04-09T05:10:41.408Z,99
2023-04-09T05:11:11.645Z,99
2023-04-09T05:12:11.007Z,99
2023-04-09T05:12:55.247Z,99
2023-04-09T05:13:14.612Z,99
2023-04-09T05:13:45.650Z,99
2023-04-09T05:14:16.884Z,99
2023-04-09T05:14:49.010Z,99
2023-04-09T05:15:20.382Z,99
2023-04-09T05:15:50.764Z,99
2023-04-09T05:16:21.573Z,99
2023-04-09T05:16:52.582Z,99
2023-04-09T05:17:22.520Z,99
2023-04-09T05:18:03.799Z,99
2023-04-09T05:18:24.539Z,99
2023-04-09T05:18:55.581Z,99
2023-04-09T05:19:26.715Z,99
2023-04-09T05:20:20.839Z,99
2023-04-09T05:20:46.039Z,99
2023-04-09T05:21:01.316Z,99
2023-04-09T05:21:31.555Z,99
2023-04-09T05:22:02.543Z,99
2023-04-09T05:23:03.400Z,99
2023-04-09T05:23:35.043Z,98
2023-04-09T05:24:05.850Z,98
2023-04-09T05:24:36.357Z,98
2023-04-09T05:25:08.865Z,98
2023-04-09T05:25:39.504Z,98
2023-04-09T05:26:11.273Z,97
2023-04-09T05:26:41.669Z,97
2023-04-09T05:27:48.109Z,97
2023-04-09T05:28:01.830Z,97
2023-04-09T05:28:52.825Z,96
2023-04-09T05:29:15.466Z,96
2023-04-09T05:30:18.117Z,96
2023-04-09T05:30:48.554Z,96
2023-04-09T05:31:21.592Z,96
2023-04-09T05:31:51.883Z,96
2023-04-09T05:32:22.639Z,96
2023-04-09T05:33:23.584Z,96
2023-04-09T05:33:54.347Z,96
2023-04-09T05:34:25.478Z,96
2023-04-09T05:34:56.578Z,95
2023-04-09T05:35:28.029Z,95
2023-04-09T05:36:01.051Z,95
2023-04-09T05:36:31.730Z,95
2023-04-09T05:37:01.758Z,95
2023-04-09T05:37:32.349Z,94
2023-04-09T05:38:23.258Z,94
2023-04-09T05:38:33.875Z,94
2023-04-09T05:39:05.094Z,94
2023-04-09T05:39:35.707Z,94
2023-04-09T05:40:07.257Z,94
2023-04-09T05:40:44.452Z,93
2023-04-09T05:41:10.614Z,93
2023-04-09T05:42:12.104Z,93
2023-04-09T05:42:43.282Z,93
2023-04-09T05:43:13.176Z,93
2023-04-09T05:43:44.361Z,93
2023-04-09T05:44:30.705Z,93
2023-04-09T05:45:07.890Z,93
2023-04-09T05:45:17.216Z,93
2023-04-09T05:45:48.697Z,93
2023-04-09T05:46:20.673Z,93
2023-04-09T05:46:52.042Z,93
2023-04-09T05:47:38.577Z,93
2023-04-09T05:48:02.827Z,93
2023-04-09T05:48:22.992Z,93
2023-04-09T05:48:53.957Z,93
2023-04-09T05:49:51.405Z,93
2023-04-09T05:49:55.985Z,93
2023-04-09T05:50:43.924Z,93
2023-04-09T05:51:42.151Z,93
2023-04-09T05:52:16.456Z,93
2023-04-09T05:53:17.430Z,93
2023-04-09T05:54:04.505Z,92
2023-04-09T05:55:51.101Z,92
2023-04-09T05:56:27.211Z,92
2023-04-09T05:56:41.661Z,92
2023-04-09T06:01:23.125Z,93
2023-04-09T06:07:20.469Z,92
2023-04-09T06:19:45.433Z,91
2023-04-09T06:25:59.804Z,85
2023-04-09T06:26:06.250Z,83
2023-04-09T06:26:43.042Z,82
2023-04-09T06:32:54.425Z,79
2023-04-09T06:34:52.490Z,80
2023-04-09T06:35:32.278Z,79
2023-04-09T06:35:59.943Z,79
2023-04-09T06:36:33.815Z,79
2023-04-09T06:36:59.741Z,78
2023-04-09T06:39:05.534Z,78
2023-04-09T06:39:33.819Z,78
2023-04-09T06:40:04.809Z,78
2023-04-09T06:40:35.500Z,77
2023-04-09T06:41:07.913Z,77
2023-04-09T06:41:36.815Z,77
2023-04-09T06:42:07.696Z,78
2023-04-09T06:42:42.336Z,77
2023-04-09T06:43:11.064Z,76
2023-04-09T06:43:41.284Z,77
2023-04-09T06:44:14.287Z,78
2023-04-09T06:44:42.768Z,78
2023-04-09T06:45:16.832Z,79
2023-04-09T06:45:52.125Z,79
2023-04-09T06:53:47.524Z,77
2023-04-09T06:54:00.839Z,77
2023-04-09T06:55:40.950Z,78
2023-04-09T06:57:01.794Z,77
2023-04-09T06:57:11.008Z,77
2023-04-09T06:57:39.022Z,77
2023-04-09T06:58:09.586Z,77
2023-04-09T06:58:39.457Z,76
2023-04-09T06:59:16.047Z,77
2023-04-09T06:59:41.733Z,77
2023-04-09T07:00:14.345Z,78
2023-04-09T07:04:04.265Z,77
2023-04-09T07:04:29.498Z,78
2023-04-09T07:04:54.504Z,77
2023-04-09T07:05:32.312Z,75
2023-04-09T07:06:01.195Z,77
2023-04-09T07:06:24.915Z,77
2023-04-09T07:07:06.137Z,75
2023-04-09T07:07:28.461Z,75
2023-04-09T07:08:01.758Z,75
2023-04-09T07:08:36.790Z,75
2023-04-09T07:09:00.059Z,76
2023-04-09T07:10:20.940Z,74
2023-04-09T07:10:33.612Z,76
2023-04-09T07:11:03.889Z,76
2023-04-09T07:11:34.578Z,74
2023-04-09T07:12:05.984Z,74
2023-04-09T07:12:41.971Z,73
2023-04-09T07:13:08.146Z,74
2023-04-09T07:13:43.383Z,71
2023-04-09T07:14:20.606Z,70
2023-04-09T07:14:43.382Z,71
2023-04-09T07:15:16.444Z,71
2023-04-09T07:15:43.236Z,72
2023-04-09T07:16:14.393Z,70
2023-04-09T07:16:44.971Z,70
2023-04-09T07:17:16.569Z,70
2023-04-09T07:17:46.830Z,69
2023-04-09T07:18:23.993Z,68
2023-04-09T07:18:51.892Z,69
2023-04-09T07:19:25.868Z,69
2023-04-09T07:19:52.759Z,70
2023-04-09T07:20:55.284Z,74
2023-04-09T07:21:24.216Z,70
2023-04-09T07:21:54.666Z,68
2023-04-09T07:22:25.992Z,70
2023-04-09T07:22:57.830Z,72
2023-04-09T07:23:30.036Z,70
2023-04-09T07:24:02.060Z,69
2023-04-09T07:25:02.391Z,70
2023-04-09T07:25:33.017Z,67
2023-04-09T07:26:02.514Z,67
2023-04-09T07:26:36.928Z,69
2023-04-09T07:27:05.150Z,69
2023-04-09T07:27:39.003Z,71
2023-04-09T07:28:07.146Z,70
2023-04-09T07:28:40.247Z,72
2023-04-09T07:29:11.950Z,70
2023-04-09T07:29:42.371Z,69
2023-04-09T07:30:13.717Z,68
2023-04-09T07:30:45.164Z,70
2023-04-09T07:31:15.301Z,70
2023-04-09T07:31:45.542Z,69
2023-04-09T07:37:47.490Z,70
2023-04-09T07:43:12.192Z,72
2023-04-09T07:43:36.700Z,69
2023-04-09T07:44:07.410Z,70
2023-04-09T07:45:37.724Z,71
2023-04-09T07:46:11.459Z,68
2023-04-09T07:46:43.692Z,71
2023-04-09T07:47:14.656Z,73
2023-04-09T07:47:47.361Z,68
2023-04-09T07:48:48.407Z,70
2023-04-09T07:49:18.962Z,70
2023-04-09T07:49:50.420Z,67
2023-04-09T07:50:37.599Z,68
2023-04-09T07:50:53.032Z,68
2023-04-09T07:51:41.135Z,68
2023-04-09T07:51:57.541Z,68
2023-04-09T07:52:24.377Z,66
2023-04-09T07:53:12.300Z,69
2023-04-09T07:53:25.434Z,70
2023-04-09T07:53:56.550Z,70
2023-04-09T07:54:27.787Z,70
2023-04-09T07:55:01.332Z,71
2023-04-09T07:55:31.945Z,71
2023-04-09T07:56:02.437Z,70
2023-04-09T07:56:32.890Z,69
2023-04-09T07:57:03.593Z,71
2023-04-09T07:58:05.036Z,67
2023-04-09T07:58:37.761Z,68
2023-04-09T07:59:06.831Z,68
2023-04-09T07:59:38.071Z,70
2023-04-09T08:00:21.783Z,71
2023-04-09T08:00:39.368Z,68
2023-04-09T08:01:12.509Z,69
2023-04-09T08:01:47.276Z,67
2023-04-09T08:02:19.704Z,66
2023-04-09T08:02:47.816Z,65
2023-04-09T08:13:41.537Z,66
2023-04-09T08:14:08.955Z,65
2023-04-09T08:14:40.144Z,66
2023-04-09T08:15:12.666Z,65
2023-04-09T08:15:40.713Z,65
2023-04-09T08:16:12.520Z,67
2023-04-09T08:16:43.496Z,68
2023-04-09T08:17:14.277Z,66
2023-04-09T08:17:46.201Z,65
2023-04-09T08:18:18.819Z,67
2023-04-09T08:18:50.238Z,67
2023-04-09T08:19:20.840Z,66
2023-04-09T08:20:09.372Z,67
2023-04-09T08:20:22.401Z,67
2023-04-09T08:20:51.957Z,66
2023-04-09T08:21:25.311Z,63
2023-04-09T08:22:24.182Z,64
2023-04-09T08:22:53.742Z,65
2023-04-09T08:23:34.172Z,67
2023-04-09T08:23:59.660Z,67
2023-04-09T08:24:32.813Z,64
2023-04-09T08:25:01.437Z,68
2023-04-09T08:25:32.312Z,68
2023-04-09T08:26:02.214Z,66
2023-04-09T08:26:37.176Z,66
2023-04-09T08:27:16.229Z,65
2023-04-09T08:27:34.020Z,65
2023-04-09T08:28:07.216Z,63
2023-04-09T08:28:54.892Z,63
2023-04-09T08:29:08.683Z,66
2023-04-09T08:29:40.659Z,66
2023-04-09T08:30:11.592Z,64
2023-04-09T08:30:41.533Z,67
2023-04-09T08:31:13.749Z,66
2023-04-09T08:31:48.139Z,64
2023-04-09T08:32:20.189Z,63
2023-04-09T08:33:14.985Z,64
2023-04-09T08:33:49.853Z,63
2023-04-09T08:34:22.702Z,64
2023-04-09T08:35:01.801Z,66
2023-04-09T08:35:22.318Z,64
2023-04-09T08:35:53.440Z,62
2023-04-09T08:36:27.692Z,64
2023-04-09T08:36:53.677Z,64
2023-04-09T08:37:22.634Z,66
2023-04-09T08:38:12.832Z,62
2023-04-09T08:38:25.341Z,66
2023-04-09T08:38:55.481Z,64
2023-04-09T08:39:28.732Z,66
2023-04-09T08:39:58.720Z,62
2023-04-09T08:40:33.309Z,62
2023-04-09T08:41:04.327Z,61
2023-04-09T08:41:38.680Z,66
2023-04-09T08:42:05.277Z,61
2023-04-09T08:42:34.139Z,63
2023-04-09T08:43:04.397Z,63
2023-04-09T08:43:53.203Z,66
2023-04-09T08:44:06.177Z,66
2023-04-09T08:44:40.671Z,65
2023-04-09T08:45:11.271Z,60
2023-04-09T08:45:41.953Z,59
2023-04-09T08:46:16.364Z,62
2023-04-09T08:46:44.651Z,61
2023-04-09T08:47:13.988Z,61
2023-04-09T08:47:44.438Z,64
2023-04-09T08:48:16.793Z,67
2023-04-09T08:48:49.189Z,65
2023-04-09T08:49:15.926Z,61
2023-04-09T08:49:49.926Z,65
2023-04-09T08:50:22.321Z,65
2023-04-09T08:50:51.487Z,65
2023-04-09T08:51:26.367Z,59
2023-04-09T08:51:54.610Z,62
2023-04-09T08:52:25.536Z,60
2023-04-09T08:52:54.909Z,65
2023-04-09T08:53:25.611Z,61
2023-04-09T08:54:27.046Z,59
2023-04-09T08:54:57.016Z,61
2023-04-09T08:55:28.582Z,61
2023-04-09T08:56:00.212Z,60
2023-04-09T08:56:33.881Z,60
2023-04-09T08:57:03.640Z,60
2023-04-09T08:57:36.828Z,61
2023-04-09T08:58:06.763Z,62
2023-04-09T08:58:36.720Z,64
2023-04-09T08:59:06.098Z,58
2023-04-09T08:59:37.398Z,62
2023-04-09T09:00:07.742Z,63
2023-04-09T09:00:39.554Z,60